• Join FlightAware (Why Join?)
  • Login
  • US Flag 
01:01PM EDT


 

Airport Tracker/Info


-or-


 

Live Flight TrackerFlight Track Log ✈ FIN666 ✈ 21-Mar-2014 ✈ EKCH / CPH - EFHK / HEL

Flight Track Log - Related Links

Times and Time Zones

All times are in EDT time to prevent confusion due to time zone crossing. See the FIN666 flight status page for this flight to view local times or setup timezone preferences in your user account.

Time Position Orientation Groundspeed Altitude Reporting Facility
EDT Latitude Longitude Course Direction KTS MPH feet Rate Location/Type
08:19AM 55.8708 13.1793 49° Northeast  Level Estimated
08:20AM 55.9546 13.3553 50° Northeast  Level Estimated
08:21AM 56.0382 13.5320 50° Northeast  Level Estimated
08:22AM 56.1215 13.7095 50° Northeast  Level Estimated
08:23AM 56.2046 13.8877 50° Northeast  Level Estimated
08:24AM 56.2873 14.0668 50° Northeast  Level Estimated
08:25AM 56.3699 14.2466 50° Northeast  Level Estimated
08:26AM 56.4521 14.4272 50° Northeast  Level Estimated
08:27AM 56.5341 14.6085 51° Northeast  Level Estimated
08:28AM 56.6159 14.7907 51° Northeast  Level Estimated
08:29AM 56.6974 14.9736 51° Northeast  Level Estimated
08:30AM 56.7786 15.1574 51° Northeast  Level Estimated
08:31AM 56.8608 15.3449 51° Northeast  Level Estimated
08:32AM 56.9428 15.5333 51° Northeast  Level Estimated
08:33AM 57.0245 15.7225 52° Northeast  Level Estimated
08:34AM 57.1059 15.9126 52° Northeast  Level Estimated
08:35AM 57.1870 16.1035 52° Northeast  Level Estimated
08:36AM 57.2678 16.2952 52° Northeast  Level Estimated
08:37AM 57.3484 16.4878 52° Northeast  Level Estimated
08:38AM 57.4286 16.6812 52° Northeast  Level Estimated
08:39AM 57.5085 16.8754 52° Northeast  Level Estimated
08:40AM 57.5882 17.0705 53° Northeast  Level Estimated
08:41AM 57.6675 17.2665 53° Northeast  Level Estimated
08:42AM 57.7466 17.4633 53° Northeast  Level Estimated
08:43AM 57.8253 17.6610 53° Northeast  Level Estimated
08:44AM 57.9037 17.8596 53° Northeast  Level Estimated
08:45AM 57.9818 18.0590 53° Northeast  Level Estimated
08:46AM 58.0596 18.2593 54° Northeast  Level Estimated
08:47AM 58.1371 18.4604 54° Northeast  Level Estimated
08:48AM 58.2142 18.6624 54° Northeast  Level Estimated
08:49AM 58.2911 18.8654 54° Northeast  Level Estimated
08:50AM 58.3676 19.0691 54° Northeast  Level Estimated
08:51AM 58.4438 19.2738 55° Northeast  Level Estimated
08:52AM 58.5196 19.4794 55° Northeast  Level Estimated
08:53AM 58.5952 19.6858 55° Northeast  Level Estimated
08:54AM 58.6704 19.8932 55° Northeast  Level Estimated
08:55AM 58.7453 20.1014 55° Northeast  Level Estimated
08:56AM 58.8198 20.3105 55° Northeast  Level Estimated
08:57AM 58.8940 20.5205 56° Northeast  Level Estimated
08:58AM 58.9678 20.7315 56° Northeast  Level Estimated
08:59AM 59.0413 20.9433 56° Northeast  Level Estimated
09:00AM 59.1145 21.1561 56° Northeast  Level Estimated
09:01AM 59.1873 21.3697 56° Northeast  Level Estimated
09:02AM 59.2597 21.5843 56° Northeast  Level Estimated
09:03AM 59.3318 21.7997 57° Northeast  Level Estimated
09:04AM 59.4036 22.0161 57° Northeast  Level Estimated
09:05AM 59.4750 22.2334 57° Northeast  Level Estimated
09:06AM 59.5460 22.4516 57° Northeast  Level Estimated
09:07AM 59.6166 22.6708 57° Northeast  Level Estimated
09:08AM 59.6869 22.8908 58° Northeast  Level Estimated
09:09AM 59.7569 23.1118 58° Northeast  Level Estimated
09:10AM 59.8264 23.3337 58° Northeast  Level Estimated
09:11AM 59.8956 23.5566 58° Northeast  Level Estimated
09:12AM 59.9644 23.7803 58° Northeast  Level Estimated
09:13AM 60.0328 24.0050 59° Northeast  Level Estimated
09:14AM 60.1008 24.2306 59° Northeast  Level Estimated
09:15AM 60.1685 24.4572 59° Northeast  Level Estimated
09:16AM 60.2357 24.6847 59° Northeast  Level Estimated
09:17AM 60.3026 24.9131 59° Northeast  Level Estimated
09:18AM 60.3172 24.9633 60° Northeast  Level Estimated
09:19AM 60.3172 24.9633 North  Level Estimated
09:20AM 60.3172 24.9633 North  Level Estimated
09:21AM 60.3172 24.9633 North  Level Estimated
09:22AM 60.3172 24.9633 North  Level Estimated
09:23AM 60.3172 24.9633 North  Level Estimated
09:24AM 60.3172 24.9633 North  Level Estimated
09:25AM 60.3172 24.9633 North  Level Estimated
09:26AM 60.3172 24.9633 North  Level Estimated
09:27AM 60.3172 24.9633 North  Level Estimated
09:28AM 60.3172 24.9633 North  Level Estimated
09:29AM 60.3172 24.9633 North  Level Estimated
09:30AM 60.3172 24.9633 North  Level Estimated
09:31AM 60.3172 24.9633 North  Level Estimated
09:32AM 60.3172 24.9633 North  Level Estimated